Time;durP1;ratioP1;P1;durP2;ratioP2;P2;SDS_P1;SDS_P2;PMS_P1;PMS_P2;Temp;Humidity;BMP_temperature;BMP_pressure;BME280_temperature;BME280_humidity;BME280_pressure;Samples;Min_cycle;Max_cycle;Signal;HPM_P1;HPM_P2
2022/02/16 00:01:10;;;;;;;19.88;11.82;;;282.10;2278.40;;;;;;4847218;29;20045;-84
2022/02/16 00:03:39;;;;;;;16.88;10.55;;;282.10;2278.40;;;;;;4855967;29;20021;-85
2022/02/16 00:06:08;;;;;;;18.63;9.10;;;282.10;2278.40;;;;;;4862940;29;20032;-84
2022/02/16 00:08:41;;;;;;;16.33;9.00;;;282.10;2278.40;;;;;;4862941;29;20071;-81
2022/02/16 00:11:28;;;;;;;17.98;10.50;;;282.10;2278.40;;;;;;4832758;29;20060;-84
2022/02/16 00:13:54;;;;;;;15.38;10.65;;;282.20;2278.40;;;;;;4858164;29;20029;-83
2022/02/16 00:16:29;;;;;;;18.70;11.70;;;282.10;2278.40;;;;;;4859837;29;20427;-82
2022/02/16 00:19:08;;;;;;;17.73;10.25;;;281.60;2278.40;;;;;;4869401;29;20482;-82
2022/02/16 00:21:59;;;;;;;17.98;10.73;;;282.10;2278.40;;;;;;4859924;29;20124;-85
2022/02/16 00:25:08;;;;;;;15.98;9.48;;;282.10;2278.40;;;;;;4845712;29;20030;-82
2022/02/16 00:27:34;;;;;;;29.58;18.95;;;282.10;2278.40;;;;;;4826130;29;20471;-86
2022/02/16 00:30:00;;;;;;;19.23;13.88;;;281.80;2278.40;;;;;;4841430;29;20022;-84
2022/02/16 00:32:26;;;;;;;16.38;10.98;;;282.00;2278.40;;;;;;4841396;29;20033;-82
2022/02/16 00:34:52;;;;;;;22.88;12.65;;;282.10;2278.40;;;;;;4841127;29;20065;-81
2022/02/16 00:37:18;;;;;;;23.55;11.27;;;282.00;2278.40;;;;;;4841332;29;20057;-80
2022/02/16 00:39:46;;;;;;;16.42;11.95;;;282.00;2278.40;;;;;;4841180;29;20115;-84
2022/02/16 00:42:24;;;;;;;17.77;10.13;;;281.90;2278.40;;;;;;4845001;29;20037;-83
2022/02/16 00:44:53;;;;;;;14.88;11.45;;;282.40;2278.40;;;;;;4845303;29;20029;-83
2022/02/16 00:47:23;;;;;;;20.67;10.77;;;281.90;2278.40;;;;;;4844109;29;20038;-84
2022/02/16 00:49:53;;;;;;;16.67;10.55;;;281.90;2278.40;;;;;;4844929;29;20044;-85
2022/02/16 00:52:58;;;;;;;14.88;10.10;;;281.90;2278.40;;;;;;4857527;29;20033;-84
2022/02/16 00:55:33;;;;;;;18.70;11.95;;;281.90;2278.40;;;;;;4831145;29;20466;-84
2022/02/16 00:58:10;;;;;;;14.48;9.63;;;281.90;2278.40;;;;;;4810919;29;20042;-83
2022/02/16 01:00:58;;;;;;;16.33;10.15;;;281.90;2278.40;;;;;;4822909;29;20046;-85
2022/02/16 01:03:28;;;;;;;14.77;10.32;;;281.90;2278.40;;;;;;4804448;29;20035;-85
2022/02/16 01:06:12;;;;;;;14.60;10.05;;;281.90;2278.40;;;;;;4804621;29;20034;-84
2022/02/16 01:09:05;;;;;;;16.80;9.73;;;281.90;2278.40;;;;;;4804458;29;20046;-83
2022/02/16 01:11:32;;;;;;;;;;;281.90;2278.40;;;;;;4804800;29;20045;-83
2022/02/16 01:14:00;;;;;;;13.02;9.20;;;281.80;2278.40;;;;;;4804173;29;19913;-85
2022/02/16 01:16:50;;;;;;;18.80;10.88;;;281.80;2278.40;;;;;;4798389;29;20038;-84
2022/02/16 01:19:44;;;;;;;14.93;9.80;;;281.80;2278.40;;;;;;4804324;29;20030;-85
2022/02/16 01:22:15;;;;;;;14.75;9.88;;;281.80;2278.40;;;;;;4789444;29;20127;-85
2022/02/16 01:25:04;;;;;;;15.77;9.75;;;281.80;2278.40;;;;;;4804164;29;20031;-84
2022/02/16 01:27:34;;;;;;;15.60;9.63;;;281.80;2278.40;;;;;;4789179;29;20038;-85
2022/02/16 01:30:03;;;;;;;15.00;9.13;;;281.80;2278.40;;;;;;4803988;29;20053;-83
2022/02/16 01:32:53;;;;;;;19.85;10.02;;;281.80;2278.40;;;;;;4787417;29;20037;-84
2022/02/16 01:35:22;;;;;;;15.60;10.25;;;281.80;2278.40;;;;;;4804199;29;20035;-84
2022/02/16 01:37:54;;;;;;;14.75;10.57;;;281.70;2278.40;;;;;;4803988;29;20112;-84
2022/02/16 01:40:45;;;;;;;15.07;9.82;;;281.80;2278.40;;;;;;4811847;29;20042;-84
2022/02/16 01:43:37;;;;;;;17.15;10.20;;;281.70;2278.40;;;;;;4837562;29;20034;-85
2022/02/16 01:46:07;;;;;;;16.70;9.13;;;281.70;2278.40;;;;;;4822085;29;20030;-85
2022/02/16 01:48:38;;;;;;;13.50;10.05;;;281.80;2278.40;;;;;;4841405;29;20043;-85
2022/02/16 01:51:36;;;;;;;16.80;10.45;;;281.80;2278.40;;;;;;4862738;29;20025;-85
2022/02/16 01:54:26;;;;;;;13.00;9.32;;;281.80;2278.40;;;;;;4865683;29;20117;-84
2022/02/16 01:57:36;;;;;;;16.48;10.02;;;281.80;2278.40;;;;;;4874648;29;20100;-82
2022/02/16 02:00:05;;;;;;;13.85;10.00;;;281.80;2278.40;;;;;;4851954;29;20051;-84
2022/02/16 02:03:02;;;;;;;18.75;10.32;;;281.80;2278.40;;;;;;4850920;29;20029;-83
2022/02/16 02:05:50;;;;;;;15.85;9.85;;;281.90;2278.40;;;;;;4877336;29;20033;-85
2022/02/16 02:09:16;;;;;;;19.42;10.02;;;281.80;2278.40;;;;;;4868438;29;20029;-85
2022/02/16 02:12:29;;;;;;;15.60;9.98;;;281.80;2278.40;;;;;;4849805;29;20112;-85
2022/02/16 02:15:06;;;;;;;15.57;9.35;;;281.90;2278.40;;;;;;4880983;29;20033;-84
2022/02/16 02:17:55;;;;;;;12.60;9.35;;;281.80;2278.40;;;;;;4880069;29;20037;-85
2022/02/16 02:20:30;;;;;;;12.70;9.70;;;281.90;2278.40;;;;;;4868864;29;20061;-85
2022/02/16 02:22:59;;;;;;;14.30;9.30;;;281.80;2278.40;;;;;;4865134;29;20033;-85
2022/02/16 02:26:11;;;;;;;;;;;;;;;;;;;;;
2022/02/16 02:28:41;;;;;;;16.85;10.70;;;281.90;2278.40;;;;;;4877044;29;20035;-85
2022/02/16 02:31:12;;;;;;;16.88;11.02;;;281.90;2278.40;;;;;;4880026;29;20049;-83
2022/02/16 02:33:38;;;;;;;18.20;9.88;;;281.90;2278.40;;;;;;4864740;29;20085;-81
2022/02/16 02:36:06;;;;;;;13.23;8.40;;;282.10;2278.40;;;;;;4864884;29;20036;-84
2022/02/16 02:38:38;;;;;;;15.48;8.23;;;281.90;2278.40;;;;;;4880422;29;20471;-84
2022/02/16 02:41:32;;;;;;;12.82;8.18;;;281.90;2278.40;;;;;;4895373;29;20037;-84
2022/02/16 02:44:09;;;;;;;14.15;8.07;;;281.90;2278.40;;;;;;4866807;29;20056;-84
2022/02/16 02:47:21;;;;;;;11.30;7.85;;;281.90;2278.40;;;;;;4880052;29;20025;-86
2022/02/16 02:50:36;;;;;;;15.13;7.65;;;281.80;2278.40;;;;;;4833466;29;20148;-85
2022/02/16 02:53:34;;;;;;;18.45;9.07;;;281.90;2278.40;;;;;;4838115;29;20038;-85
2022/02/16 02:56:27;;;;;;;13.50;9.27;;;281.80;2278.40;;;;;;4846105;29;20045;-86
2022/02/16 02:59:39;;;;;;;18.02;10.90;;;281.90;2278.40;;;;;;4805503;29;20061;-85
2022/02/16 03:02:23;;;;;;;20.08;14.35;;;281.90;2278.40;;;;;;4791438;29;20439;-87
2022/02/16 03:05:57;;;;;;;32.67;21.27;;;281.90;2278.40;;;;;;4806327;29;20093;-86
2022/02/16 03:09:36;;;;;;;19.52;12.13;;;281.80;2278.40;;;;;;4734955;30;20037;-84
2022/02/16 03:12:15;;;;;;;17.90;13.23;;;281.70;2278.40;;;;;;4752717;30;20481;-85
2022/02/16 03:14:48;;;;;;;15.98;10.82;;;281.60;2278.40;;;;;;4752228;30;20044;-85
2022/02/16 03:17:32;;;;;;;14.30;7.90;;;281.70;2278.40;;;;;;4752300;30;20036;-85
2022/02/16 03:21:02;;;;;;;10.00;7.47;;;281.70;2278.40;;;;;;4742741;30;20095;-86
2022/02/16 03:24:37;;;;;;;12.15;8.57;;;281.80;2278.40;;;;;;4728456;30;20032;-84
2022/02/16 03:27:48;;;;;;;12.93;9.68;;;281.80;2278.40;;;;;;4699854;30;20087;-84
2022/02/16 03:31:06;;;;;;;;;;;;;;;;;;;;;
2022/02/16 03:34:24;;;;;;;20.50;12.38;;;281.80;2278.40;;;;;;4665512;30;20042;-86
2022/02/16 03:38:28;;;;;;;28.38;21.52;;;281.80;2278.40;;;;;;4665059;30;20128;-85
2022/02/16 03:41:29;;;;;;;28.07;17.67;;;281.70;2278.40;;;;;;4633957;30;20087;-86
2022/02/16 03:44:59;;;;;;;25.92;15.25;;;281.70;2278.40;;;;;;4602603;31;20406;-83
2022/02/16 03:47:44;;;;;;;27.95;17.00;;;281.70;2278.40;;;;;;4546887;31;20132;-83
2022/02/16 03:51:42;;;;;;;29.23;20.90;;;281.60;2278.40;;;;;;4581420;31;20045;-83
2022/02/16 03:55:24;;;;;;;38.75;23.23;;;256.90;2252.80;;;;;;4570804;31;20045;-82
2022/02/16 03:57:57;;;;;;;33.10;18.20;;;256.70;2252.80;;;;;;4564909;31;20044;-84
2022/02/16 04:00:27;;;;;;;28.85;17.52;;;256.40;2252.80;;;;;;4557732;31;20057;-83
2022/02/16 04:02:58;;;;;;;30.98;19.88;;;256.20;2252.80;;;;;;4571732;31;20045;-83
2022/02/16 04:05:40;;;;;;;30.83;18.10;;;256.90;2252.80;;;;;;4631010;30;20483;-83
2022/02/16 04:08:36;;;;;;;29.42;18.08;;;256.10;2252.80;;;;;;4716347;30;20753;-85
2022/02/16 04:11:09;;;;;;;33.70;19.55;;;256.20;2252.80;;;;;;4715972;30;20033;-83
2022/02/16 04:14:02;;;;;;;36.92;21.67;;;256.10;2252.80;;;;;;4749446;30;20067;-83
2022/02/16 04:16:33;;;;;;;40.88;26.65;;;256.20;2252.80;;;;;;4736434;30;20042;-83
2022/02/16 04:19:04;;;;;;;41.05;26.27;;;256.10;2252.80;;;;;;4745363;30;20389;-84
2022/02/16 04:21:35;;;;;;;46.58;24.85;;;256.20;2252.80;;;;;;4790458;29;20087;-83
2022/02/16 04:24:12;;;;;;;43.28;22.77;;;256.20;2252.80;;;;;;4823202;29;20045;-84
2022/02/16 04:26:42;;;;;;;40.42;22.58;;;256.30;2252.80;;;;;;4843423;29;20078;-83
2022/02/16 04:29:44;;;;;;;40.35;24.88;;;256.10;2252.80;;;;;;4855429;29;20499;-84
2022/02/16 04:32:22;;;;;;;35.47;22.70;;;256.00;2252.80;;;;;;4844105;29;20047;-86
2022/02/16 04:35:09;;;;;;;40.78;24.52;;;256.20;2252.80;;;;;;4863913;29;20085;-87
2022/02/16 04:38:12;;;;;;;38.40;22.38;;;256.30;2252.80;;;;;;4880738;29;20092;-86
2022/02/16 04:40:42;;;;;;;45.78;28.02;;;256.10;2252.80;;;;;;4863615;29;20373;-85
2022/02/16 04:43:09;;;;;;;43.20;28.05;;;256.20;2252.80;;;;;;4863443;29;20122;-86
2022/02/16 04:46:01;;;;;;;37.63;23.88;;;256.20;2252.80;;;;;;4863767;29;20032;-86
2022/02/16 04:48:33;;;;;;;36.17;22.77;;;256.30;2252.80;;;;;;4864450;29;20031;-86
2022/02/16 04:51:08;;;;;;;45.80;28.13;;;256.30;2252.80;;;;;;4880625;29;20040;-84
2022/02/16 04:53:41;;;;;;;79.53;46.72;;;256.30;2252.80;;;;;;4863738;29;20469;-83
2022/02/16 04:56:18;;;;;;;72.30;45.58;;;256.20;2252.80;;;;;;4880219;29;20029;-83
2022/02/16 04:59:08;;;;;;;66.28;40.55;;;256.10;2252.80;;;;;;4848538;29;20033;-84
2022/02/16 05:02:13;;;;;;;59.80;34.92;;;256.20;2252.80;;;;;;4806176;29;20116;-84
2022/02/16 05:05:51;;;;;;;51.65;32.80;;;256.20;2252.80;;;;;;4877191;29;20040;-83
2022/02/16 05:08:33;;;;;;;48.08;28.73;;;256.30;2252.80;;;;;;4750629;30;20099;-83
2022/02/16 05:14:25;;;;;;;35.58;21.85;;;256.00;2252.80;;;;;;4733135;30;20135;-84
2022/02/16 05:16:52;;;;;;;35.15;22.92;;;256.10;2252.80;;;;;;4733541;30;20082;-84
2022/02/16 05:19:39;;;;;;;37.47;24.42;;;256.20;2252.80;;;;;;4733201;30;20064;-83
2022/02/16 05:22:07;;;;;;;37.30;21.40;;;231.30;2252.80;;;;;;4718169;30;20489;-83
2022/02/16 05:24:36;;;;;;;39.90;25.80;;;231.10;2252.80;;;;;;4724081;29;20047;-83
2022/02/16 05:27:06;;;;;;;43.08;26.20;;;231.10;2252.80;;;;;;4789693;29;20097;-83
2022/02/16 05:29:35;;;;;;;57.13;30.95;;;231.30;2252.80;;;;;;4767295;30;20050;-82
2022/02/16 05:32:17;;;;;;;62.70;33.05;;;256.00;2252.80;;;;;;4750800;30;20044;-83
2022/02/16 05:34:51;;;;;;;41.35;22.75;;;256.10;2252.80;;;;;;4750026;30;20454;-83
2022/02/16 05:37:47;;;;;;;37.35;23.75;;;231.30;2252.80;;;;;;4750351;30;20036;-83
2022/02/16 05:40:45;;;;;;;53.08;28.70;;;256.00;2252.80;;;;;;4765402;30;20040;-83
2022/02/16 05:43:23;;;;;;;57.00;32.78;;;256.10;2252.80;;;;;;4746824;30;20552;-83
2022/02/16 05:45:59;;;;;;;46.70;30.75;;;256.10;2252.80;;;;;;4822605;29;20383;-84
2022/02/16 05:48:51;;;;;;;50.38;34.72;;;256.10;2252.80;;;;;;4814384;29;20034;-85
2022/02/16 05:52:16;;;;;;;76.43;47.63;;;256.10;2252.80;;;;;;4820095;29;20091;-84
2022/02/16 05:55:05;;;;;;;71.97;50.03;;;231.30;2252.80;;;;;;4822687;29;20030;-82
2022/02/16 05:57:32;;;;;;;76.57;52.78;;;256.00;2252.80;;;;;;4807168;29;20050;-83
2022/02/16 06:00:03;;;;;;;73.72;46.25;;;256.10;2252.80;;;;;;4821900;29;20034;-83
2022/02/16 06:02:30;;;;;;;68.18;41.20;;;231.30;2252.80;;;;;;4822334;29;20571;-85
2022/02/16 06:04:57;;;;;;;83.53;53.70;;;231.20;2252.80;;;;;;4822259;29;20487;-85
2022/02/16 06:07:23;;;;;;;74.55;47.00;;;231.30;2252.80;;;;;;4822354;29;20026;-82
2022/02/16 06:09:49;;;;;;;81.53;52.67;;;231.20;2252.80;;;;;;4807258;29;20117;-86
2022/02/16 06:12:17;;;;;;;82.47;49.38;;;231.20;2252.80;;;;;;4806761;29;20123;-87
2022/02/16 06:14:44;;;;;;;77.47;48.75;;;231.30;2252.80;;;;;;4807066;29;20038;-85
2022/02/16 06:17:12;;;;;;;70.85;45.47;;;230.80;2252.80;;;;;;4807066;29;20062;-84
2022/02/16 06:19:49;;;;;;;113.90;67.40;;;231.10;2252.80;;;;;;4837795;29;20121;-85
2022/02/16 06:22:42;;;;;;;115.70;71.22;;;231.00;2252.80;;;;;;4852977;29;20065;-85
2022/02/16 06:25:15;;;;;;;74.40;41.65;;;231.20;2252.80;;;;;;4862666;29;20165;-85
2022/02/16 06:28:05;;;;;;;68.55;51.00;;;231.10;2252.80;;;;;;4877341;29;20041;-85
2022/02/16 06:31:26;;;;;;;76.85;53.88;;;231.20;2252.80;;;;;;4878762;29;20100;-85
2022/02/16 06:34:03;;;;;;;61.33;44.90;;;231.20;2252.80;;;;;;4865242;29;20033;-79
2022/02/16 06:36:48;;;;;;;51.95;34.63;;;231.20;2252.80;;;;;;4887194;29;20021;-83
2022/02/16 06:46:14;;;;;;;111.03;67.78;;;231.30;2252.80;;;;;;4882918;29;20060;-84
2022/02/16 06:48:40;;;;;;;123.65;76.20;;;231.20;2252.80;;;;;;4866222;29;20081;-85
2022/02/16 06:51:28;;;;;;;68.85;45.63;;;231.10;2252.80;;;;;;4881305;29;20040;-86
2022/02/16 06:54:00;;;;;;;54.10;32.83;;;231.00;2252.80;;;;;;4865793;29;20044;-83
2022/02/16 06:56:47;;;;;;;72.03;46.38;;;231.00;2252.80;;;;;;4862837;29;20481;-85
2022/02/16 06:59:21;;;;;;;73.63;45.53;;;231.10;2252.80;;;;;;4851183;29;20041;-85
2022/02/16 07:01:47;;;;;;;91.18;58.90;;;231.20;2252.80;;;;;;4865419;29;20130;-85
2022/02/16 07:04:15;;;;;;;113.25;76.97;;;231.20;2252.80;;;;;;4865566;29;20077;-85
2022/02/16 07:06:41;;;;;;;121.95;78.50;;;231.20;2252.80;;;;;;4865378;29;20597;-85
2022/02/16 07:09:08;;;;;;;166.05;110.32;;;231.30;2252.80;;;;;;4865510;29;20037;-85
2022/02/16 07:11:37;;;;;;;144.15;98.57;;;231.30;2252.80;;;;;;4880799;29;20033;-85
2022/02/16 07:14:04;;;;;;;142.23;96.60;;;231.10;2252.80;;;;;;4864952;29;20085;-86
2022/02/16 07:16:33;;;;;;;142.82;93.45;;;231.10;2252.80;;;;;;4865495;29;20413;-85
2022/02/16 07:19:03;;;;;;;109.57;72.07;;;231.30;2252.80;;;;;;4865211;29;20080;-85
2022/02/16 07:21:29;;;;;;;110.90;69.28;;;231.10;2252.80;;;;;;4880423;29;20021;-85
2022/02/16 07:23:57;;;;;;;108.20;68.65;;;256.10;2252.80;;;;;;4880690;29;20084;-86
2022/02/16 07:26:25;;;;;;;169.95;111.25;;;230.90;2252.80;;;;;;4849958;29;20029;-85
2022/02/16 07:28:51;;;;;;;138.15;98.30;;;231.10;2252.80;;;;;;4881594;29;20477;-85
2022/02/16 07:31:29;;;;;;;124.38;82.13;;;231.10;2252.80;;;;;;4865056;29;20025;-86
2022/02/16 07:33:57;;;;;;;96.28;65.28;;;231.20;2252.80;;;;;;4880394;29;20025;-83
2022/02/16 07:36:24;;;;;;;88.20;57.30;;;231.10;2252.80;;;;;;4878601;29;20116;-84
2022/02/16 07:38:52;;;;;;;113.15;76.30;;;231.00;2252.80;;;;;;4880343;29;20037;-84
2022/02/16 07:41:19;;;;;;;108.93;73.15;;;231.10;2252.80;;;;;;4880245;29;20358;-84
2022/02/16 07:43:47;;;;;;;109.00;75.82;;;231.20;2252.80;;;;;;4880362;29;20381;-84
2022/02/16 07:46:15;;;;;;;122.45;79.75;;;231.30;2252.80;;;;;;4881583;29;20036;-87
2022/02/16 07:48:45;;;;;;;80.88;57.38;;;231.30;2252.80;;;;;;4895452;29;20093;-83
2022/02/16 07:51:18;;;;;;;59.83;44.83;;;231.30;2252.80;;;;;;4880295;29;20412;-84
2022/02/16 07:53:48;;;;;;;;;;;231.30;2252.80;;;;;;4881592;29;20052;-85
2022/02/16 07:56:15;;;;;;;68.78;47.65;;;256.10;2252.80;;;;;;4864538;29;20347;-84
2022/02/16 07:58:44;;;;;;;102.43;63.47;;;256.00;2252.80;;;;;;4849323;29;20037;-84
2022/02/16 08:01:12;;;;;;;94.25;62.20;;;231.30;2252.80;;;;;;4864275;29;20065;-85
2022/02/16 08:03:40;;;;;;;87.57;56.95;;;230.90;2252.80;;;;;;4863974;29;20029;-83
2022/02/16 08:06:07;;;;;;;95.72;57.10;;;231.30;2252.80;;;;;;4864512;29;20025;-85
2022/02/16 08:08:43;;;;;;;96.47;60.10;;;256.00;2252.80;;;;;;4880309;29;20029;-84
2022/02/16 08:11:12;;;;;;;86.30;55.67;;;231.30;2252.80;;;;;;4880192;29;20036;-85
2022/02/16 08:13:41;;;;;;;89.43;59.00;;;256.00;2252.80;;;;;;4894967;29;20092;-85
2022/02/16 08:16:09;;;;;;;91.13;60.53;;;256.10;2252.80;;;;;;4864032;29;20431;-86
2022/02/16 08:18:42;;;;;;;96.72;66.57;;;256.20;2252.80;;;;;;4880907;29;20088;-86
2022/02/16 08:21:09;;;;;;;95.60;66.70;;;256.10;2252.80;;;;;;4863882;29;20044;-85
2022/02/16 08:23:44;;;;;;;108.97;73.90;;;231.20;2252.80;;;;;;4863965;29;20025;-86
2022/02/16 08:26:14;;;;;;;118.40;75.88;;;256.00;2252.80;;;;;;4864320;29;20033;-85
2022/02/16 08:28:43;;;;;;;184.23;111.30;;;256.10;2252.80;;;;;;4864012;29;20056;-86
2022/02/16 08:31:12;;;;;;;184.43;113.22;;;256.20;2252.80;;;;;;4863904;29;20115;-84
2022/02/16 08:33:43;;;;;;;177.00;122.55;;;256.10;2252.80;;;;;;4863962;29;20380;-86
2022/02/16 08:36:17;;;;;;;160.95;112.88;;;256.10;2252.80;;;;;;4863649;29;20076;-86
2022/02/16 08:38:49;;;;;;;172.15;119.18;;;256.30;2252.80;;;;;;4863554;29;20025;-83
2022/02/16 08:41:32;;;;;;;106.05;77.05;;;256.20;2252.80;;;;;;4894387;29;20500;-83
2022/02/16 08:44:01;;;;;;;88.85;61.63;;;256.30;2252.80;;;;;;4863701;29;20033;-84
2022/02/16 08:46:50;;;;;;;103.30;69.50;;;256.30;2252.80;;;;;;4863812;29;20067;-83
2022/02/16 08:49:44;;;;;;;76.22;54.17;;;256.30;2252.80;;;;;;4880293;29;20032;-83
2022/02/16 08:52:28;;;;;;;77.30;56.15;;;256.40;2252.80;;;;;;4878864;29;20033;-83
2022/02/16 08:54:54;;;;;;;64.43;46.88;;;256.40;2252.80;;;;;;4862151;29;20081;-79
2022/02/16 08:57:22;;;;;;;61.63;43.65;;;256.40;2252.80;;;;;;4863298;29;20123;-82
2022/02/16 08:59:52;;;;;;;71.35;49.35;;;256.40;2252.80;;;;;;4863131;29;20031;-82
2022/02/16 09:02:19;;;;;;;74.65;51.33;;;256.00;2252.80;;;;;;4863420;29;20037;-82
2022/02/16 09:04:45;;;;;;;75.32;52.05;;;256.50;2252.80;;;;;;4863146;29;20025;-82
2022/02/16 09:07:30;;;;;;;114.57;76.40;;;256.00;2252.80;;;;;;4863144;29;20024;-82
2022/02/16 09:10:03;;;;;;;275.42;142.32;;;256.50;2252.80;;;;;;4863331;29;20029;-82
2022/02/16 09:12:31;;;;;;;169.32;101.72;;;256.50;2252.80;;;;;;4863130;29;20025;-79
2022/02/16 09:14:58;;;;;;;120.47;78.93;;;256.60;2252.80;;;;;;4863236;29;20120;-80
2022/02/16 09:17:25;;;;;;;120.75;77.43;;;256.60;2252.80;;;;;;4863291;29;20036;-77
2022/02/16 09:19:57;;;;;;;102.28;68.22;;;256.60;2252.80;;;;;;4862815;29;20056;-81
2022/02/16 09:22:58;;;;;;;83.60;60.27;;;256.70;2252.80;;;;;;4863161;29;20377;-77
2022/02/16 09:25:59;;;;;;;;;;;;;;;;;;;;;
2022/02/16 09:32:21;;;;;;;69.47;52.95;;;256.70;2252.80;;;;;;4879611;29;20048;-83
2022/02/16 09:56:31;;;;;;;;;;;;;;;;;;;;;
2022/02/16 09:59:35;;;;;;;62.33;45.05;;;256.90;2252.80;;;;;;4803983;29;20369;-81
2022/02/16 10:09:57;;;;;;;52.78;37.80;;;281.70;2278.40;;;;;;4877304;29;20049;-80
2022/02/16 10:13:18;;;;;;;53.17;35.47;;;281.80;2278.40;;;;;;4849909;29;20029;-79
2022/02/16 10:20:11;;;;;;;51.65;37.17;;;281.90;2278.40;;;;;;4787705;29;20376;-80
2022/02/16 10:27:05;;;;;;;62.05;39.53;;;282.10;2278.40;;;;;;4813939;29;20026;-77
2022/02/16 10:30:40;;;;;;;63.83;38.42;;;282.20;2278.40;;;;;;4832727;29;20492;-78
2022/02/16 10:34:06;;;;;;;51.63;36.17;;;282.20;2278.40;;;;;;4773268;30;20039;-84
2022/02/16 10:38:05;;;;;;;46.35;34.45;;;282.30;2278.40;;;;;;4752596;30;20043;-84
2022/02/16 10:52:05;;;;;;;44.65;33.10;;;282.50;2278.40;;;;;;4727679;30;20068;-84
2022/02/16 11:54:36;;;;;;;49.88;34.78;;;307.60;2304.00;;;;;;4751446;30;20141;-84
2022/02/16 11:58:13;;;;;;;;;;;;;;;;;;;;;
2022/02/16 12:05:04;;;;;;;;;;;;;;;;;;;;;
2022/02/16 12:08:39;;;;;;;38.83;27.40;;;307.60;2304.00;;;;;;4714819;30;20021;-84
2022/02/16 12:12:20;;;;;;;;;;;;;;;;;;;;;
2022/02/16 12:16:22;;;;;;;;;;;;;;;;;;;;;
2022/02/16 12:19:40;;;;;;;;;;;;;;;;;;;;;
2022/02/16 12:26:28;;;;;;;;;;;;;;;;;;;;;
2022/02/16 12:30:02;;;;;;;;;;;;;;;;;;;;;
2022/02/16 12:36:23;;;;;;;76.00;55.70;;;308.00;2304.00;;;;;;4804760;29;20026;-82
2022/02/16 12:42:17;;;;;;;38.97;28.63;;;332.90;2329.60;;;;;;4733214;30;20094;-83
2022/02/16 12:44:43;;;;;;;44.27;30.80;;;333.20;2329.60;;;;;;4736378;30;20093;-80
2022/02/16 12:47:29;;;;;;;;;;;;;;;;;;;;;
2022/02/16 12:51:08;;;;;;;;;;;;;;;;;;;;;
2022/02/16 12:54:32;;;;;;;37.70;28.38;;;358.60;2329.60;;;;;;4731434;30;20510;-83
2022/02/16 12:57:37;;;;;;;45.42;32.00;;;358.80;2329.60;;;;;;4757059;30;20043;-85
2022/02/16 13:00:52;;;;;;;28.60;22.30;;;358.80;2329.60;;;;;;4771294;30;20120;-85
2022/02/16 13:04:02;;;;;;;34.92;24.98;;;358.70;2329.60;;;;;;4755857;30;20072;-84
2022/02/16 13:06:58;;;;;;;32.50;25.98;;;358.60;2329.60;;;;;;4769128;30;20100;-85
2022/02/16 13:09:44;;;;;;;36.13;26.27;;;358.80;2329.60;;;;;;4771504;30;20034;-82
2022/02/16 13:12:36;;;;;;;38.28;26.83;;;358.90;2329.60;;;;;;4768405;29;20060;-81
2022/02/16 13:26:26;;;;;;;30.52;24.15;;;359.30;2329.60;;;;;;4750035;30;20072;-86
2022/02/16 13:36:59;;;;;;;34.85;26.98;;;384.30;2329.60;;;;;;4768541;29;20551;-84
2022/02/16 13:39:53;;;;;;;37.88;28.13;;;384.70;2329.60;;;;;;4788953;29;20035;-85
2022/02/16 13:50:15;;;;;;;;;;;;;;;;;;;;;
2022/02/16 14:00:10;;;;;;;50.75;33.60;;;384.30;2329.60;;;;;;4718902;30;20045;-86
2022/02/16 14:02:40;;;;;;;43.17;28.75;;;384.50;2329.60;;;;;;4729901;30;20164;-83
2022/02/16 14:08:35;;;;;;;38.72;29.80;;;384.80;2329.60;;;;;;4753643;30;20143;-84
2022/02/16 14:11:23;;;;;;;44.10;28.77;;;384.30;2329.60;;;;;;4745311;30;20439;-80
2022/02/16 14:14:00;;;;;;;34.20;26.00;;;384.10;2329.60;;;;;;4859262;29;20401;-78
2022/02/16 14:16:29;;;;;;;38.60;26.55;;;384.00;2329.60;;;;;;4883897;29;20028;-77
2022/02/16 14:49:32;;;;;;;42.33;29.00;;;358.40;2329.60;;;;;;4632246;30;20039;-83
2022/02/16 14:52:40;;;;;;;48.75;33.75;;;358.40;2329.60;;;;;;4694821;30;20040;-85
2022/02/16 14:55:26;;;;;;;45.10;34.88;;;333.70;2329.60;;;;;;4736097;30;20036;-86
2022/02/16 14:57:53;;;;;;;50.72;34.15;;;333.60;2329.60;;;;;;4773253;30;20139;-79
2022/02/16 15:17:45;;;;;;;103.03;68.20;;;333.30;2329.60;;;;;;4648958;30;20065;-82
2022/02/16 15:21:14;;;;;;;78.05;56.75;;;333.30;2329.60;;;;;;4720313;30;20051;-84
2022/02/16 15:31:00;;;;;;;79.40;55.13;;;333.20;2329.60;;;;;;4766281;30;20030;-84
2022/02/16 15:33:30;;;;;;;67.32;48.05;;;333.20;2329.60;;;;;;4765274;29;20039;-84
2022/02/16 16:50:50;;;;;;;135.50;87.60;;;282.40;2278.40;;;;;;4843082;29;20559;-84
2022/02/16 16:53:33;;;;;;;129.20;87.68;;;282.40;2278.40;;;;;;4897651;29;20036;-81
2022/02/16 17:00:27;;;;;;;;;;;;;;;;;;;;;
2022/02/16 17:10:53;;;;;;;145.55;101.47;;;282.20;2278.40;;;;;;4786801;30;20590;-85
2022/02/16 17:14:14;;;;;;;133.90;89.53;;;282.20;2278.40;;;;;;4715634;30;20037;-84
2022/02/16 17:32:44;;;;;;;238.73;147.50;;;281.70;2278.40;;;;;;4711816;30;20064;-82
2022/02/16 17:36:42;;;;;;;236.50;144.95;;;281.60;2278.40;;;;;;4742333;30;20043;-84
2022/02/16 17:48:21;;;;;;;171.93;114.78;;;256.90;2252.80;;;;;;4688298;30;20419;-84
2022/02/16 17:55:28;;;;;;;184.15;122.05;;;256.80;2252.80;;;;;;4663496;30;20041;-84
2022/02/16 18:03:37;;;;;;;217.10;139.90;;;256.80;2252.80;;;;;;4662533;30;20476;-80
2022/02/16 18:07:58;;;;;;;220.50;148.15;;;256.80;2252.80;;;;;;4649166;30;20488;-82
2022/02/16 18:10:15;;;;;;;287.52;195.27;;;256.60;2252.80;;;;;;4658586;29;20532;-78
2022/02/16 18:12:48;;;;;;;284.08;193.00;;;256.60;2252.80;;;;;;4819332;29;20573;-80
2022/02/16 18:15:26;;;;;;;;;;;256.60;2252.80;;;;;;4867497;29;20093;-81
2022/02/16 18:18:36;;;;;;;276.40;178.68;;;256.70;2252.80;;;;;;4861860;29;19908;-84
2022/02/16 18:22:09;;;;;;;307.83;206.40;;;256.40;2252.80;;;;;;4858704;29;20108;-85
2022/02/16 18:25:08;;;;;;;272.90;178.65;;;256.10;2252.80;;;;;;4768129;30;20159;-83
2022/02/16 18:28:00;;;;;;;409.85;274.17;;;256.20;2252.80;;;;;;4706518;30;20482;-85
2022/02/16 18:30:28;;;;;;;334.45;223.45;;;231.30;2252.80;;;;;;4698174;30;20045;-84
2022/02/16 18:32:55;;;;;;;332.95;222.18;;;256.00;2252.80;;;;;;4747377;30;20040;-85
2022/02/16 18:35:41;;;;;;;213.20;144.43;;;256.00;2252.80;;;;;;4720567;30;20103;-85
2022/02/16 18:39:13;;;;;;;234.07;154.15;;;231.00;2252.80;;;;;;4723628;30;20067;-79
2022/02/16 18:42:54;;;;;;;259.48;180.55;;;231.10;2252.80;;;;;;4731503;30;20359;-85
2022/02/16 18:45:41;;;;;;;232.82;157.13;;;231.20;2252.80;;;;;;4736931;30;20406;-84
2022/02/16 18:48:22;;;;;;;224.18;146.05;;;231.30;2252.80;;;;;;4740880;30;20052;-84
2022/02/16 18:50:53;;;;;;;278.27;178.13;;;231.20;2252.80;;;;;;4755950;30;20119;-86
2022/02/16 18:53:21;;;;;;;349.70;233.15;;;256.00;2252.80;;;;;;4788175;29;20492;-84
2022/02/16 18:55:51;;;;;;;178.57;117.53;;;231.30;2252.80;;;;;;4861720;29;20041;-84
2022/02/16 18:58:25;;;;;;;172.10;113.68;;;256.20;2252.80;;;;;;4880100;29;20045;-86
2022/02/16 19:01:06;;;;;;;162.82;110.45;;;256.00;2252.80;;;;;;4862968;29;20072;-84
2022/02/16 19:03:38;;;;;;;167.25;112.97;;;256.10;2252.80;;;;;;4864360;29;20497;-86
2022/02/16 19:06:12;;;;;;;153.43;102.78;;;256.20;2252.80;;;;;;4897126;29;20035;-85
2022/02/16 19:08:41;;;;;;;135.48;94.55;;;231.20;2252.80;;;;;;4883079;29;20029;-85
2022/02/16 19:11:12;;;;;;;180.75;118.13;;;256.00;2252.80;;;;;;4899439;29;20393;-85
2022/02/16 19:13:43;;;;;;;225.55;146.82;;;256.10;2252.80;;;;;;4900913;29;20025;-86
2022/02/16 19:16:12;;;;;;;206.00;137.10;;;256.00;2252.80;;;;;;4899756;29;20065;-84
2022/02/16 19:18:41;;;;;;;180.60;126.15;;;256.10;2252.80;;;;;;4898856;29;20044;-85
2022/02/16 19:21:18;;;;;;;159.77;105.55;;;256.00;2252.80;;;;;;4899983;29;20493;-85
2022/02/16 19:23:55;;;;;;;156.38;108.15;;;231.20;2252.80;;;;;;4900618;29;20032;-84
2022/02/16 19:26:55;;;;;;;143.23;99.45;;;231.30;2252.80;;;;;;4900440;29;20017;-85
2022/02/16 19:29:31;;;;;;;154.73;102.40;;;231.10;2252.80;;;;;;4899684;29;20044;-85
2022/02/16 19:32:08;;;;;;;154.77;109.55;;;231.20;2252.80;;;;;;4898915;29;20032;-85
2022/02/16 19:34:37;;;;;;;167.68;112.70;;;231.30;2252.80;;;;;;4900427;29;20096;-84